Time;durP1;ratioP1;P1;durP2;ratioP2;P2;SDS_P1;SDS_P2;PMS_P1;PMS_P2;Temp;Humidity;BMP_temperature;BMP_pressure;BME280_temperature;BME280_humidity;BME280_pressure;Samples;Min_cycle;Max_cycle;Signal;HPM_P1;HPM_P2
2023/09/02 00:00:36;;;;;;;26.02;20.40;;;17.20;99.90;;;;;;5020152;28;20196;-79
2023/09/02 00:03:04;;;;;;;26.33;19.63;;;17.10;99.90;;;;;;5033951;28;20226;-79
2023/09/02 00:05:31;;;;;;;23.67;18.98;;;17.10;99.90;;;;;;5013568;28;20188;-79
2023/09/02 00:07:59;;;;;;;26.08;19.40;;;17.10;99.90;;;;;;5036279;28;20200;-79
2023/09/02 00:10:26;;;;;;;28.60;19.50;;;17.10;99.90;;;;;;5019670;28;20203;-79
2023/09/02 00:12:54;;;;;;;26.98;19.73;;;17.10;99.90;;;;;;5018625;28;20227;-79
2023/09/02 00:15:22;;;;;;;24.05;18.42;;;17.10;99.90;;;;;;5019828;28;20708;-79
2023/09/02 00:17:51;;;;;;;24.27;18.98;;;17.10;99.90;;;;;;5020660;28;20204;-79
2023/09/02 00:20:20;;;;;;;22.35;18.30;;;17.10;99.90;;;;;;5020208;28;20200;-79
2023/09/02 00:22:48;;;;;;;22.85;17.77;;;17.10;99.90;;;;;;5020728;28;20219;-79
2023/09/02 00:25:15;;;;;;;21.48;16.80;;;17.10;99.90;;;;;;5018951;28;20184;-79
2023/09/02 00:27:43;;;;;;;20.08;15.60;;;17.10;99.90;;;;;;5018547;28;20195;-79
2023/09/02 00:30:11;;;;;;;21.02;16.38;;;17.10;99.90;;;;;;5018996;28;20205;-79
2023/09/02 00:32:38;;;;;;;19.48;16.45;;;17.10;99.90;;;;;;5020666;28;20253;-80
2023/09/02 00:35:08;;;;;;;20.30;16.55;;;17.10;99.90;;;;;;5034581;28;20218;-80
2023/09/02 00:37:36;;;;;;;19.83;16.30;;;17.10;99.90;;;;;;5018830;28;20196;-80
2023/09/02 00:40:05;;;;;;;19.38;16.08;;;17.10;99.90;;;;;;5020390;28;20195;-79
2023/09/02 00:42:34;;;;;;;19.90;14.95;;;17.00;99.90;;;;;;5034918;28;20219;-79
2023/09/02 00:45:02;;;;;;;20.83;16.40;;;17.00;99.90;;;;;;5035994;28;20283;-79
2023/09/02 00:47:30;;;;;;;18.20;15.85;;;17.10;99.90;;;;;;5018185;28;20199;-79
2023/09/02 00:50:00;;;;;;;19.27;15.52;;;17.00;99.90;;;;;;5017989;28;20207;-79
2023/09/02 00:52:28;;;;;;;18.63;15.77;;;17.00;99.90;;;;;;5020724;28;20215;-79
2023/09/02 00:54:56;;;;;;;18.80;15.30;;;17.10;99.90;;;;;;5018581;28;20216;-79
2023/09/02 00:57:24;;;;;;;17.00;14.57;;;17.00;99.90;;;;;;5019497;28;20203;-79
2023/09/02 00:59:51;;;;;;;17.83;14.27;;;17.00;99.90;;;;;;5019377;28;20200;-79
2023/09/02 01:02:19;;;;;;;18.52;14.82;;;17.00;99.90;;;;;;5035697;28;20226;-79
2023/09/02 01:04:47;;;;;;;18.65;14.50;;;17.00;99.90;;;;;;5018403;28;20215;-79
2023/09/02 01:07:15;;;;;;;18.38;15.30;;;17.10;99.90;;;;;;5018408;28;20199;-79
2023/09/02 01:09:45;;;;;;;19.30;14.95;;;17.00;99.90;;;;;;5033513;28;20196;-79
2023/09/02 01:12:14;;;;;;;18.98;15.15;;;17.00;99.90;;;;;;5018869;28;20204;-79
2023/09/02 01:14:41;;;;;;;19.58;15.90;;;17.00;99.90;;;;;;5016909;28;20204;-79
2023/09/02 01:17:09;;;;;;;19.33;16.23;;;17.00;99.90;;;;;;5017784;28;20199;-79
2023/09/02 01:19:38;;;;;;;21.52;16.70;;;17.00;99.90;;;;;;5017233;28;20196;-79
2023/09/02 01:22:27;;;;;;;22.27;16.42;;;17.00;99.90;;;;;;5017647;28;20210;-79
2023/09/02 01:25:30;;;;;;;19.58;15.95;;;17.00;99.90;;;;;;5016592;28;20199;-79
2023/09/02 01:28:05;;;;;;;18.27;15.05;;;17.00;99.90;;;;;;5015191;28;20195;-79
2023/09/02 01:30:34;;;;;;;19.33;15.02;;;17.00;99.90;;;;;;5033860;28;20196;-79
2023/09/02 01:33:05;;;;;;;19.35;15.00;;;17.00;99.90;;;;;;5029376;28;20215;-79
2023/09/02 01:35:37;;;;;;;20.10;14.70;;;16.90;99.90;;;;;;5017201;28;20211;-79
2023/09/02 01:38:07;;;;;;;17.67;14.02;;;17.00;99.90;;;;;;5017035;28;20199;-79
2023/09/02 01:40:36;;;;;;;17.98;14.93;;;17.00;99.90;;;;;;5033481;28;20211;-79
2023/09/02 01:43:06;;;;;;;19.45;14.75;;;17.00;99.90;;;;;;5016767;28;20215;-79
2023/09/02 01:45:35;;;;;;;18.48;14.00;;;17.00;99.90;;;;;;5016050;28;20195;-79
2023/09/02 01:48:04;;;;;;;19.23;14.57;;;16.90;99.90;;;;;;5033456;28;20200;-79
2023/09/02 01:50:34;;;;;;;18.15;14.48;;;16.90;99.90;;;;;;5015641;28;20210;-79
2023/09/02 01:53:03;;;;;;;17.27;13.23;;;16.90;99.90;;;;;;5018268;28;20226;-79
2023/09/02 01:55:30;;;;;;;18.23;14.05;;;16.90;99.90;;;;;;5017097;28;20215;-79
2023/09/02 01:57:58;;;;;;;17.77;14.65;;;16.90;99.90;;;;;;5017590;28;20203;-79
2023/09/02 02:00:27;;;;;;;17.95;13.88;;;17.00;99.90;;;;;;5032302;28;20188;-79
2023/09/02 02:02:55;;;;;;;18.48;14.70;;;16.90;99.90;;;;;;5031964;28;20234;-79
2023/09/02 02:05:31;;;;;;;17.63;13.82;;;16.90;99.90;;;;;;5017065;28;20209;-79
2023/09/02 02:08:03;;;;;;;19.23;14.88;;;16.90;99.90;;;;;;5032646;28;20206;-79
2023/09/02 02:10:33;;;;;;;21.15;14.63;;;16.90;99.90;;;;;;5033479;28;20203;-79
2023/09/02 02:13:02;;;;;;;16.58;13.77;;;16.90;99.90;;;;;;5016883;28;20219;-79
2023/09/02 02:15:31;;;;;;;20.30;14.13;;;16.90;99.90;;;;;;5032911;28;20235;-79
2023/09/02 02:17:58;;;;;;;20.58;14.45;;;16.90;99.90;;;;;;5017867;28;20210;-79
2023/09/02 02:20:38;;;;;;;19.67;14.65;;;16.90;99.90;;;;;;5015907;28;20199;-79
2023/09/02 02:23:07;;;;;;;17.23;13.60;;;16.90;99.90;;;;;;5017042;28;20223;-79
2023/09/02 02:25:35;;;;;;;19.35;14.25;;;16.90;99.90;;;;;;5013162;28;20208;-79
2023/09/02 02:28:04;;;;;;;17.73;14.30;;;16.90;99.90;;;;;;5016586;28;20210;-79
2023/09/02 02:30:33;;;;;;;20.00;13.80;;;16.90;99.90;;;;;;5022126;28;20203;-79
2023/09/02 02:33:01;;;;;;;17.38;13.25;;;16.90;99.90;;;;;;5025415;28;20230;-79
2023/09/02 02:35:31;;;;;;;20.40;15.18;;;16.90;99.90;;;;;;5027951;28;20223;-79
2023/09/02 02:38:00;;;;;;;17.10;12.95;;;16.90;99.90;;;;;;5024407;28;20219;-79
2023/09/02 02:40:27;;;;;;;19.20;14.25;;;16.90;99.90;;;;;;5034252;28;20713;-79
2023/09/02 02:42:55;;;;;;;21.08;13.95;;;16.90;99.90;;;;;;5044093;28;20207;-79
2023/09/02 02:45:23;;;;;;;18.40;13.48;;;17.00;99.90;;;;;;5029304;28;20200;-79
2023/09/02 02:47:51;;;;;;;19.45;14.00;;;17.00;99.90;;;;;;5045186;28;20203;-79
2023/09/02 02:50:19;;;;;;;19.55;13.05;;;16.90;99.90;;;;;;5027355;28;20196;-79
2023/09/02 02:52:47;;;;;;;17.50;13.90;;;17.00;99.90;;;;;;5028255;28;20230;-79
2023/09/02 02:55:14;;;;;;;19.38;14.57;;;17.00;99.90;;;;;;5027576;28;20207;-79
2023/09/02 02:57:43;;;;;;;19.50;14.57;;;17.10;99.90;;;;;;5043010;28;20287;-79
2023/09/02 03:00:13;;;;;;;20.83;13.52;;;17.00;99.90;;;;;;5025311;28;20195;-79
2023/09/02 03:02:40;;;;;;;19.60;15.13;;;17.00;99.90;;;;;;5020074;28;20673;-79
2023/09/02 03:05:10;;;;;;;18.48;14.50;;;17.00;99.90;;;;;;5018287;28;20212;-79
2023/09/02 03:07:40;;;;;;;20.13;13.18;;;17.00;99.90;;;;;;5013303;28;20188;-79
2023/09/02 03:10:08;;;;;;;19.73;14.45;;;17.00;99.90;;;;;;5033390;28;20192;-79
2023/09/02 03:12:36;;;;;;;17.15;13.55;;;17.00;99.90;;;;;;5043870;22;20226;-82
2023/09/02 03:15:07;;;;;;;18.88;13.40;;;17.00;99.90;;;;;;5024394;28;20214;-82
2023/09/02 03:17:35;;;;;;;15.70;12.38;;;17.00;99.90;;;;;;5031861;28;20707;-83
2023/09/02 03:20:05;;;;;;;17.63;13.90;;;17.00;99.90;;;;;;5031110;28;20195;-82
2023/09/02 03:22:35;;;;;;;17.40;12.00;;;17.00;99.90;;;;;;5023957;28;20220;-83
2023/09/02 03:25:03;;;;;;;17.50;12.38;;;17.10;99.90;;;;;;5011753;28;20692;-83
2023/09/02 03:27:30;;;;;;;17.73;12.73;;;17.10;99.90;;;;;;5012721;28;20279;-82
2023/09/02 03:29:58;;;;;;;15.48;12.55;;;17.10;99.90;;;;;;5011597;28;20204;-82
2023/09/02 03:32:26;;;;;;;17.38;13.25;;;17.10;99.90;;;;;;5011621;28;20219;-83
2023/09/02 03:34:54;;;;;;;16.77;11.48;;;17.10;99.90;;;;;;5012812;28;20219;-82
2023/09/02 03:37:22;;;;;;;15.90;11.35;;;17.10;99.90;;;;;;5011619;28;20219;-83
2023/09/02 03:39:51;;;;;;;15.40;11.85;;;17.10;99.90;;;;;;5015158;28;20215;-83
2023/09/02 03:42:19;;;;;;;14.88;11.50;;;17.10;99.90;;;;;;5014284;28;20227;-81
2023/09/02 03:44:46;;;;;;;15.63;11.50;;;17.10;99.90;;;;;;5015983;28;20200;-83
2023/09/02 03:47:13;;;;;;;16.80;12.45;;;17.10;99.90;;;;;;5031958;28;20215;-83
2023/09/02 03:49:41;;;;;;;18.23;12.52;;;17.10;99.90;;;;;;5014651;28;20569;-82
2023/09/02 03:52:09;;;;;;;16.75;11.98;;;17.10;99.90;;;;;;5014332;28;20203;-82
2023/09/02 03:54:38;;;;;;;15.93;12.32;;;17.10;99.90;;;;;;5015237;28;20207;-82
2023/09/02 03:57:07;;;;;;;17.35;12.55;;;17.10;99.90;;;;;;5015788;28;20211;-83
2023/09/02 03:59:34;;;;;;;16.08;11.93;;;17.10;99.90;;;;;;5014016;28;20215;-83
2023/09/02 04:02:02;;;;;;;16.25;12.07;;;17.10;99.90;;;;;;5014899;28;20203;-81
2023/09/02 04:04:29;;;;;;;14.60;11.07;;;17.10;99.90;;;;;;5013660;28;20211;-82
2023/09/02 04:06:57;;;;;;;16.42;11.77;;;17.10;99.90;;;;;;5013095;28;20203;-81
2023/09/02 04:09:25;;;;;;;15.00;11.73;;;17.10;99.90;;;;;;5015455;28;20203;-80
2023/09/02 04:11:53;;;;;;;13.45;11.05;;;17.10;99.90;;;;;;5016399;28;20553;-83
2023/09/02 04:14:21;;;;;;;13.70;11.45;;;17.10;99.90;;;;;;5029738;28;20228;-83
2023/09/02 04:16:49;;;;;;;16.25;12.00;;;17.10;99.90;;;;;;5015257;28;20223;-83
2023/09/02 04:19:17;;;;;;;12.82;9.82;;;17.10;99.90;;;;;;5014646;28;20204;-83
2023/09/02 04:21:45;;;;;;;12.88;10.23;;;17.10;99.90;;;;;;5014600;28;20210;-83
2023/09/02 04:24:12;;;;;;;13.18;9.13;;;17.10;99.90;;;;;;5014861;28;20234;-83
2023/09/02 04:26:40;;;;;;;13.52;9.93;;;17.10;99.90;;;;;;5015716;28;20535;-82
2023/09/02 04:29:07;;;;;;;13.93;10.90;;;17.10;99.90;;;;;;5016484;28;20200;-83
2023/09/02 04:31:36;;;;;;;14.65;10.73;;;17.10;99.90;;;;;;5002111;28;20197;-83
2023/09/02 04:34:04;;;;;;;14.23;11.38;;;17.10;99.90;;;;;;5019780;28;20235;-82
2023/09/02 04:36:31;;;;;;;12.02;9.73;;;17.00;99.90;;;;;;5015018;28;20262;-83
2023/09/02 04:38:59;;;;;;;12.27;9.45;;;17.10;99.90;;;;;;5014230;28;20204;-83
2023/09/02 04:41:27;;;;;;;11.57;8.82;;;17.10;99.90;;;;;;5013929;28;20199;-83
2023/09/02 04:43:56;;;;;;;9.30;8.32;;;17.10;99.90;;;;;;5018401;28;20227;-83
2023/09/02 04:46:24;;;;;;;12.35;9.52;;;17.10;99.90;;;;;;5014395;28;20192;-83
2023/09/02 04:48:54;;;;;;;12.27;8.95;;;17.20;99.90;;;;;;5014906;28;20658;-83
2023/09/02 04:51:22;;;;;;;12.57;8.60;;;17.10;99.90;;;;;;5013496;28;20538;-83
2023/09/02 04:53:50;;;;;;;12.93;9.25;;;17.10;99.90;;;;;;5009846;28;20219;-82
2023/09/02 04:56:17;;;;;;;10.93;8.70;;;17.10;99.90;;;;;;5013520;28;20199;-83
2023/09/02 04:58:46;;;;;;;11.10;8.25;;;17.10;99.90;;;;;;5014971;28;20200;-83
2023/09/02 05:01:16;;;;;;;11.98;9.65;;;17.10;99.90;;;;;;5011124;28;20563;-83
2023/09/02 05:03:48;;;;;;;12.27;9.30;;;17.10;99.90;;;;;;5014650;28;20231;-82
2023/09/02 05:06:17;;;;;;;10.38;8.65;;;17.10;99.90;;;;;;5032130;28;20199;-83
2023/09/02 05:08:47;;;;;;;9.40;7.95;;;17.10;99.90;;;;;;5015378;28;20597;-82
2023/09/02 05:11:18;;;;;;;10.43;8.18;;;17.10;99.90;;;;;;5014184;28;20195;-83
2023/09/02 05:13:46;;;;;;;9.65;8.40;;;17.10;99.90;;;;;;5013940;28;20232;-83
2023/09/02 05:16:13;;;;;;;10.23;8.52;;;17.10;99.90;;;;;;5015236;28;20673;-82
2023/09/02 05:18:41;;;;;;;10.80;9.05;;;17.10;99.90;;;;;;5015614;28;20204;-83
2023/09/02 05:21:08;;;;;;;10.68;7.80;;;17.10;99.90;;;;;;5030937;28;20211;-82
2023/09/02 05:23:37;;;;;;;10.00;8.15;;;17.10;99.90;;;;;;5016404;28;20227;-81
2023/09/02 05:26:05;;;;;;;8.38;7.32;;;17.10;99.90;;;;;;5032265;28;20546;-83
2023/09/02 05:28:32;;;;;;;9.60;8.05;;;17.00;99.90;;;;;;5018100;28;20199;-82
2023/09/02 05:31:00;;;;;;;9.48;7.95;;;17.10;99.90;;;;;;5015178;28;20207;-83
2023/09/02 05:33:27;;;;;;;10.15;7.47;;;17.00;99.90;;;;;;5018478;28;20219;-83
2023/09/02 05:35:55;;;;;;;8.35;7.40;;;17.00;99.90;;;;;;5015443;28;20200;-82
2023/09/02 05:38:22;;;;;;;8.35;7.15;;;17.10;99.90;;;;;;5015863;28;20223;-82
2023/09/02 05:40:52;;;;;;;10.13;7.47;;;17.10;99.90;;;;;;5031243;28;20210;-82
2023/09/02 05:43:19;;;;;;;9.50;7.88;;;17.10;99.90;;;;;;5015954;28;20216;-83
2023/09/02 05:45:48;;;;;;;7.93;7.13;;;17.20;99.90;;;;;;5015203;28;20198;-82
2023/09/02 05:48:16;;;;;;;10.05;6.82;;;17.20;99.90;;;;;;5014332;28;20195;-83
2023/09/02 05:50:44;;;;;;;10.35;7.60;;;17.30;99.90;;;;;;5011950;28;20208;-83
2023/09/02 05:53:11;;;;;;;8.35;7.20;;;17.20;99.90;;;;;;5014055;28;20557;-81
2023/09/02 05:55:39;;;;;;;11.05;8.55;;;17.30;99.90;;;;;;5014774;28;20196;-83
2023/09/02 05:58:07;;;;;;;10.35;8.70;;;17.30;99.90;;;;;;5014006;28;20212;-82
2023/09/02 06:00:36;;;;;;;9.07;8.15;;;17.30;99.90;;;;;;5008014;28;20215;-82
2023/09/02 06:03:04;;;;;;;12.45;9.27;;;17.40;99.90;;;;;;5012467;28;20238;-83
2023/09/02 06:05:31;;;;;;;10.98;8.73;;;17.40;99.90;;;;;;5012262;28;20199;-83
2023/09/02 06:07:58;;;;;;;10.60;8.70;;;17.40;99.90;;;;;;5011803;28;20195;-83
2023/09/02 06:10:26;;;;;;;9.20;7.35;;;17.50;99.90;;;;;;5010151;28;20287;-83
2023/09/02 06:12:53;;;;;;;9.27;7.40;;;17.40;99.90;;;;;;5011619;28;20227;-83
2023/09/02 06:15:22;;;;;;;11.32;8.18;;;17.50;99.90;;;;;;4993565;28;20562;-83
2023/09/02 06:17:50;;;;;;;10.57;8.57;;;17.50;99.90;;;;;;5021226;28;20218;-83
2023/09/02 06:20:20;;;;;;;9.52;8.52;;;17.50;99.90;;;;;;5037855;28;20200;-83
2023/09/02 06:22:47;;;;;;;11.07;8.65;;;17.50;99.90;;;;;;5017612;28;20236;-82
2023/09/02 06:25:15;;;;;;;11.00;8.70;;;17.50;99.90;;;;;;5023305;28;20199;-82
2023/09/02 06:27:42;;;;;;;9.60;7.43;;;17.60;99.90;;;;;;5022700;28;20195;-83
2023/09/02 06:30:10;;;;;;;10.98;8.98;;;17.60;99.90;;;;;;5011031;28;20203;-83
2023/09/02 06:32:39;;;;;;;10.23;8.75;;;17.70;99.90;;;;;;5013818;28;20227;-83
2023/09/02 06:35:11;;;;;;;9.80;8.52;;;17.70;99.90;;;;;;5031476;28;20204;-83
2023/09/02 06:37:39;;;;;;;9.10;7.80;;;17.80;99.90;;;;;;5014118;28;20215;-83
2023/09/02 06:40:07;;;;;;;9.57;8.13;;;17.90;99.90;;;;;;5012725;28;20211;-82
2023/09/02 06:42:35;;;;;;;9.63;8.30;;;18.00;99.90;;;;;;5014214;28;20223;-83
2023/09/02 06:45:02;;;;;;;8.45;7.55;;;18.00;99.90;;;;;;5013212;28;20210;-83
2023/09/02 06:47:30;;;;;;;8.43;7.50;;;18.10;99.90;;;;;;5012621;28;20195;-82
2023/09/02 06:49:59;;;;;;;9.27;8.38;;;18.10;99.90;;;;;;5011283;28;20203;-83
2023/09/02 06:52:26;;;;;;;9.10;8.10;;;18.20;99.90;;;;;;5011562;28;20222;-83
2023/09/02 06:54:53;;;;;;;8.77;7.88;;;18.10;99.90;;;;;;5010996;28;20200;-83
2023/09/02 06:57:21;;;;;;;8.90;7.93;;;18.10;99.90;;;;;;5009390;28;20204;-83
2023/09/02 06:59:48;;;;;;;10.35;8.05;;;18.10;99.90;;;;;;5011850;28;20208;-83
2023/09/02 07:02:16;;;;;;;8.38;7.50;;;18.20;99.90;;;;;;5009836;28;20201;-84
2023/09/02 07:04:43;;;;;;;8.65;7.10;;;18.20;99.90;;;;;;5009009;28;20195;-83
2023/09/02 07:07:12;;;;;;;8.95;7.65;;;18.20;99.90;;;;;;5011618;28;20203;-83
2023/09/02 07:09:39;;;;;;;7.72;6.78;;;18.20;99.90;;;;;;5010837;28;20207;-83
2023/09/02 07:12:07;;;;;;;7.80;7.00;;;18.10;99.90;;;;;;5012609;28;20210;-83
2023/09/02 07:14:35;;;;;;;8.20;7.35;;;18.20;99.90;;;;;;5015943;28;20219;-83
2023/09/02 07:17:02;;;;;;;7.07;6.30;;;18.30;99.90;;;;;;5015532;28;20211;-83
2023/09/02 07:19:30;;;;;;;8.02;6.30;;;18.30;99.90;;;;;;5015247;28;20220;-83
2023/09/02 07:21:57;;;;;;;9.73;6.22;;;18.30;99.90;;;;;;5013619;28;20204;-83
2023/09/02 07:24:26;;;;;;;6.20;5.60;;;18.40;99.90;;;;;;5014001;28;20700;-83
2023/09/02 07:26:54;;;;;;;6.38;5.53;;;18.40;99.90;;;;;;5016104;28;20200;-83
2023/09/02 07:29:21;;;;;;;6.38;5.65;;;18.50;99.90;;;;;;5031923;28;20196;-82
2023/09/02 07:31:48;;;;;;;5.88;5.28;;;18.50;99.90;;;;;;5013916;28;20203;-83
2023/09/02 07:34:16;;;;;;;7.00;4.97;;;18.60;99.90;;;;;;5012957;28;20223;-83
2023/09/02 07:36:44;;;;;;;6.38;5.35;;;18.60;99.90;;;;;;5032908;28;20192;-85
2023/09/02 07:39:12;;;;;;;8.07;5.20;;;18.70;99.90;;;;;;5015481;28;20227;-82
2023/09/02 07:41:41;;;;;;;6.00;4.78;;;18.70;99.90;;;;;;5016392;28;20203;-82
2023/09/02 07:44:09;;;;;;;5.57;4.95;;;18.70;99.90;;;;;;5014833;28;20231;-83
2023/09/02 07:46:37;;;;;;;12.65;9.50;;;18.70;99.90;;;;;;5015865;28;20540;-82
2023/09/02 07:49:04;;;;;;;13.18;11.15;;;18.80;99.90;;;;;;5014093;28;20199;-82
2023/09/02 07:51:32;;;;;;;7.20;6.50;;;18.80;99.90;;;;;;5030881;28;20196;-83
2023/09/02 07:53:59;;;;;;;5.22;4.45;;;18.90;99.90;;;;;;5015946;28;20231;-83
2023/09/02 07:56:26;;;;;;;6.32;5.63;;;18.90;99.90;;;;;;5016518;28;20669;-83
2023/09/02 07:58:55;;;;;;;5.80;5.20;;;18.90;99.90;;;;;;5017028;28;20223;-83
2023/09/02 08:01:23;;;;;;;5.70;4.97;;;18.90;99.90;;;;;;5031941;28;20206;-83
2023/09/02 08:03:50;;;;;;;6.65;4.97;;;19.00;99.90;;;;;;5017708;28;20719;-83
2023/09/02 08:06:18;;;;;;;4.35;3.83;;;19.00;99.90;;;;;;5016250;28;20218;-82
2023/09/02 08:08:45;;;;;;;4.53;3.85;;;18.80;99.90;;;;;;5016832;28;20203;-83
2023/09/02 08:11:17;;;;;;;3.47;3.17;;;18.90;99.90;;;;;;5014871;28;20211;-83
2023/09/02 08:13:45;;;;;;;4.07;3.65;;;19.00;99.90;;;;;;5016954;28;20234;-82
2023/09/02 08:16:13;;;;;;;4.65;3.90;;;18.90;99.90;;;;;;5017666;28;20200;-83
2023/09/02 08:18:41;;;;;;;4.47;3.50;;;18.90;99.90;;;;;;5016057;28;20216;-82
2023/09/02 08:21:09;;;;;;;4.22;3.83;;;19.00;99.90;;;;;;5022198;28;20200;-83
2023/09/02 08:23:38;;;;;;;4.55;3.40;;;19.00;99.90;;;;;;5014362;28;20591;-83
2023/09/02 08:26:12;;;;;;;5.15;3.45;;;19.10;99.90;;;;;;5015413;28;20199;-83
2023/09/02 08:28:40;;;;;;;4.97;3.65;;;19.10;99.90;;;;;;5014765;28;20198;-83
2023/09/02 08:31:11;;;;;;;4.10;3.42;;;19.10;99.90;;;;;;5021699;28;20199;-83
2023/09/02 08:33:39;;;;;;;5.22;4.45;;;19.10;99.90;;;;;;5013256;28;20234;-83
2023/09/02 08:36:07;;;;;;;5.88;4.30;;;19.10;99.90;;;;;;5010525;28;20208;-83
2023/09/02 08:38:35;;;;;;;5.57;4.97;;;19.10;99.90;;;;;;5013052;28;20220;-83
2023/09/02 08:41:04;;;;;;;6.63;5.35;;;19.10;99.90;;;;;;5011151;28;20207;-83
2023/09/02 08:43:32;;;;;;;5.68;5.18;;;19.20;99.90;;;;;;5012734;28;20255;-83
2023/09/02 08:46:04;;;;;;;5.05;4.13;;;19.20;99.90;;;;;;5012291;28;20649;-83
2023/09/02 08:48:35;;;;;;;8.52;4.45;;;19.30;99.90;;;;;;5030634;28;20191;-83
2023/09/02 08:51:04;;;;;;;5.10;4.20;;;19.50;99.90;;;;;;5013886;28;20203;-84
2023/09/02 08:53:33;;;;;;;4.55;4.15;;;19.70;99.90;;;;;;5012912;28;20215;-82
2023/09/02 08:56:01;;;;;;;4.60;4.18;;;19.80;99.90;;;;;;5012749;28;20215;-83
2023/09/02 08:58:30;;;;;;;4.72;3.75;;;19.80;99.90;;;;;;5011108;28;20204;-82
2023/09/02 09:00:58;;;;;;;4.05;3.65;;;19.60;99.90;;;;;;5012746;28;20212;-81
2023/09/02 09:03:29;;;;;;;3.92;3.63;;;19.60;99.90;;;;;;5013547;28;20230;-82
2023/09/02 09:05:58;;;;;;;4.35;3.95;;;19.60;99.90;;;;;;5030521;28;20210;-83
2023/09/02 09:08:29;;;;;;;4.82;4.32;;;19.70;99.90;;;;;;5030339;28;20202;-83
2023/09/02 09:10:57;;;;;;;5.97;4.20;;;19.80;99.90;;;;;;5012763;28;20283;-80
2023/09/02 09:13:26;;;;;;;4.63;3.55;;;19.90;99.90;;;;;;5028702;28;20227;-83
2023/09/02 09:15:57;;;;;;;4.72;3.80;;;20.00;99.90;;;;;;5013838;28;20203;-83
2023/09/02 09:18:25;;;;;;;7.88;4.55;;;20.10;99.90;;;;;;5013210;28;20203;-82
2023/09/02 09:20:54;;;;;;;3.10;2.72;;;20.10;99.90;;;;;;5029406;28;20238;-82
2023/09/02 09:23:21;;;;;;;3.38;2.90;;;20.20;99.90;;;;;;5013872;28;20685;-82
2023/09/02 09:25:52;;;;;;;4.75;2.75;;;20.10;99.90;;;;;;5011970;28;20214;-82
2023/09/02 09:28:20;;;;;;;2.90;2.70;;;20.20;99.90;;;;;;5004410;28;20206;-82
2023/09/02 09:30:47;;;;;;;3.25;2.70;;;20.30;99.90;;;;;;5012203;28;20685;-82
2023/09/02 09:33:19;;;;;;;3.55;2.45;;;20.60;99.90;;;;;;5013529;28;20220;-82
2023/09/02 09:35:46;;;;;;;4.18;2.50;;;20.70;99.90;;;;;;5012596;28;20215;-83
2023/09/02 09:38:14;;;;;;;3.60;2.40;;;20.80;99.90;;;;;;5014319;28;20566;-82
2023/09/02 09:40:41;;;;;;;3.78;2.33;;;20.80;99.90;;;;;;5012278;28;20215;-82
2023/09/02 09:43:17;;;;;;;2.60;2.22;;;20.90;99.90;;;;;;5013488;28;20246;-82
2023/09/02 09:45:52;;;;;;;2.97;2.47;;;21.00;99.90;;;;;;5015295;28;20195;-82
2023/09/02 09:48:19;;;;;;;3.63;2.15;;;21.00;99.90;;;;;;5004441;28;20194;-82
2023/09/02 09:50:47;;;;;;;4.10;2.10;;;21.00;99.90;;;;;;5013292;28;20206;-82
2023/09/02 09:53:14;;;;;;;2.53;2.30;;;20.90;99.90;;;;;;5014615;28;20598;-82
2023/09/02 09:55:41;;;;;;;3.58;2.13;;;21.00;99.90;;;;;;5030074;28;20204;-82
2023/09/02 09:58:09;;;;;;;4.35;2.30;;;21.00;99.90;;;;;;5014690;28;20192;-82
2023/09/02 10:00:38;;;;;;;3.03;2.05;;;20.90;99.90;;;;;;5010793;28;20211;-82
2023/09/02 10:03:06;;;;;;;2.20;2.10;;;20.90;99.90;;;;;;5012408;28;20228;-82
2023/09/02 10:05:34;;;;;;;3.70;2.40;;;20.90;99.90;;;;;;5013870;28;20202;-82
2023/09/02 10:08:03;;;;;;;3.80;2.47;;;21.10;99.90;;;;;;5013331;28;20216;-82
2023/09/02 10:10:32;;;;;;;2.05;1.85;;;21.30;99.90;;;;;;5013087;28;20215;-82
2023/09/02 10:13:00;;;;;;;1.92;1.75;;;21.50;99.90;;;;;;5014865;28;20223;-82
2023/09/02 10:15:28;;;;;;;2.20;2.00;;;21.70;99.90;;;;;;5012137;28;20200;-82
2023/09/02 10:17:58;;;;;;;2.88;2.03;;;21.90;99.90;;;;;;5019290;28;20680;-82
2023/09/02 10:20:27;;;;;;;2.88;2.13;;;21.90;99.90;;;;;;5013881;28;20215;-82
2023/09/02 10:22:58;;;;;;;2.97;2.03;;;21.90;99.90;;;;;;5012741;28;20223;-82
2023/09/02 10:25:28;;;;;;;2.50;2.30;;;21.90;99.90;;;;;;5030295;28;20662;-82
2023/09/02 10:28:05;;;;;;;3.03;2.15;;;21.60;99.90;;;;;;5013111;28;20200;-82
2023/09/02 10:30:43;;;;;;;3.80;2.17;;;21.60;99.90;;;;;;5014668;28;20195;-82
2023/09/02 10:33:19;;;;;;;2.58;1.80;;;21.70;99.90;;;;;;5013060;28;20223;-83
2023/09/02 10:35:57;;;;;;;2.17;1.98;;;21.90;99.90;;;;;;5025243;28;20203;-82
2023/09/02 10:38:27;;;;;;;2.10;1.83;;;22.00;99.90;;;;;;5011243;28;20200;-82
2023/09/02 10:41:04;;;;;;;3.47;1.48;;;21.80;99.90;;;;;;4993723;28;20219;-82
2023/09/02 10:43:32;;;;;;;3.13;1.92;;;21.90;99.90;;;;;;5006902;28;20222;-82
2023/09/02 10:46:00;;;;;;;2.78;1.98;;;21.90;99.90;;;;;;5014274;28;20200;-82
2023/09/02 10:48:29;;;;;;;2.72;2.22;;;21.80;99.90;;;;;;5012505;28;20200;-83
2023/09/02 10:50:57;;;;;;;2.63;2.40;;;21.80;99.90;;;;;;5013415;28;20196;-82
2023/09/02 10:53:59;;;;;;;6.35;2.60;;;21.80;99.90;;;;;;4997100;28;20231;-82
2023/09/02 10:56:28;;;;;;;4.32;3.20;;;21.70;99.90;;;;;;5006836;28;20199;-82
2023/09/02 10:58:55;;;;;;;5.47;3.83;;;21.60;99.90;;;;;;5014531;28;20219;-82
2023/09/02 11:01:23;;;;;;;4.65;3.50;;;21.50;99.90;;;;;;5013618;28;20228;-82
2023/09/02 11:03:53;;;;;;;3.42;2.70;;;21.50;99.90;;;;;;5014217;28;20227;-82
2023/09/02 11:06:21;;;;;;;2.97;2.70;;;21.60;99.90;;;;;;5013791;28;20200;-82
2023/09/02 11:08:49;;;;;;;2.58;2.38;;;21.70;99.90;;;;;;5011829;28;20204;-82
2023/09/02 11:11:18;;;;;;;3.55;2.90;;;22.00;99.90;;;;;;5013478;28;20199;-82
2023/09/02 11:14:18;;;;;;;4.63;2.90;;;22.00;99.90;;;;;;5013978;28;20711;-82
2023/09/02 11:17:06;;;;;;;2.38;2.17;;;22.30;99.90;;;;;;5013705;28;20200;-82
2023/09/02 11:19:56;;;;;;;4.35;2.75;;;22.50;99.90;;;;;;5027364;28;20196;-82
2023/09/02 11:22:46;;;;;;;2.60;2.40;;;22.70;99.90;;;;;;5010393;28;20220;-82
2023/09/02 11:25:25;;;;;;;2.78;2.35;;;22.80;99.90;;;;;;5012124;28;20191;-82
2023/09/02 11:27:53;;;;;;;2.25;2.05;;;22.80;99.90;;;;;;5011673;28;20207;-82
2023/09/02 11:30:20;;;;;;;4.40;2.42;;;23.00;23.40;;;;;;5010644;28;20203;-82
2023/09/02 11:32:48;;;;;;;2.35;2.15;;;22.80;99.90;;;;;;5011403;28;20223;-82
2023/09/02 11:35:23;;;;;;;2.58;2.20;;;22.70;99.90;;;;;;5011455;28;20223;-83
2023/09/02 11:37:51;;;;;;;3.03;2.50;;;23.00;1.00;;;;;;5011333;28;20211;-82
2023/09/02 11:40:20;;;;;;;3.97;2.90;;;22.80;99.90;;;;;;5008835;28;20693;-82
2023/09/02 11:42:51;;;;;;;3.05;2.67;;;22.70;1.00;;;;;;5007105;28;20228;-83
2023/09/02 11:45:20;;;;;;;4.13;2.63;;;22.60;1.00;;;;;;5004138;28;20206;-82
2023/09/02 11:47:48;;;;;;;3.65;2.83;;;22.80;1.00;;;;;;5012219;28;20196;-82
2023/09/02 11:50:22;;;;;;;4.82;3.40;;;22.70;1.00;;;;;;5025315;28;20203;-82
2023/09/02 11:52:55;;;;;;;4.60;3.80;;;22.50;1.00;;;;;;5008015;28;20227;-82
2023/09/02 11:55:28;;;;;;;5.68;3.97;;;22.40;1.00;;;;;;5005229;28;20207;-82
2023/09/02 11:57:55;;;;;;;4.28;3.88;;;22.80;99.90;;;;;;5011193;28;20207;-83
2023/09/02 12:00:25;;;;;;;5.40;3.58;;;22.80;99.90;;;;;;5009490;28;20224;-82
2023/09/02 12:02:55;;;;;;;4.85;4.38;;;23.00;99.90;;;;;;5002958;28;20220;-82
2023/09/02 12:05:24;;;;;;;5.95;5.45;;;23.10;99.90;;;;;;5012459;28;20207;-82
2023/09/02 12:07:51;;;;;;;5.03;4.63;;;23.10;1.00;;;;;;5030677;28;20203;-82
2023/09/02 12:10:24;;;;;;;5.80;5.15;;;23.20;99.90;;;;;;5013043;28;20192;-83
2023/09/02 12:12:52;;;;;;;5.43;4.85;;;23.20;1.00;;;;;;5013853;28;20227;-83
2023/09/02 12:15:20;;;;;;;5.47;4.97;;;23.30;1.00;;;;;;5013247;28;20210;-83
2023/09/02 12:17:49;;;;;;;6.25;5.40;;;23.30;99.90;;;;;;5013537;28;20204;-82
2023/09/02 12:20:17;;;;;;;5.93;5.43;;;23.40;1.00;;;;;;5030027;28;20670;-82
2023/09/02 12:22:48;;;;;;;5.80;5.30;;;23.30;1.00;;;;;;5013250;28;20226;-82
2023/09/02 12:25:18;;;;;;;6.28;5.75;;;23.40;1.00;;;;;;5011483;28;20215;-82
2023/09/02 12:27:45;;;;;;;6.47;5.80;;;23.10;1.00;;;;;;5011583;28;20199;-82
2023/09/02 12:30:14;;;;;;;6.72;6.13;;;23.10;99.90;;;;;;5014084;28;20207;-82
2023/09/02 12:32:45;;;;;;;8.10;5.70;;;23.00;1.00;;;;;;5012393;28;20688;-82
2023/09/02 12:35:13;;;;;;;8.82;6.15;;;23.00;1.00;;;;;;5029215;28;20215;-82
2023/09/02 12:37:40;;;;;;;6.22;5.63;;;23.00;99.90;;;;;;5028833;28;20199;-82
2023/09/02 12:40:14;;;;;;;7.18;6.13;;;22.90;99.90;;;;;;5012774;28;20562;-82
2023/09/02 12:42:43;;;;;;;5.97;5.47;;;22.80;1.00;;;;;;5014505;28;20242;-82
2023/09/02 12:45:11;;;;;;;8.23;7.40;;;22.60;1.00;;;;;;5011815;28;20653;-82
2023/09/02 12:47:41;;;;;;;6.97;6.38;;;22.60;99.90;;;;;;5029475;28;20211;-82